RJAF(METAR)
05/21 16:00
METAR RJAF 210700Z 35014KT 9999 FEW020 BKN/// 18/12 Q1003 RMK 2CU020
A2964=
戻る
トップページへ戻る
IMOC Co,.Ltd.